Terminal Aerodrome Forecast
Issued by NWS

Home | Current Version | Previous Version | Text Only | Print | Product List | Glossary On
Versions: 1 2 3 4 5 6 7 8 9 10 11 12 13
000
FTUS45 KREV 201700
TAFMMH
TAF
KMMH 201720Z 2018/2118 11007KT P6SM SKC
     FM202200 26011G19KT P6SM SCT100 SCT180
     FM210400 30008KT P6SM FEW100 SCT180=

USA.gov is the U.S. government's official web portal to all federal, state and local government web resources and services.